createdAt,value
2022-08-12T00:00:09.560Z,13.6
2022-08-12T00:03:09.935Z,13.4
2022-08-12T00:06:13.932Z,13.6
2022-08-12T00:09:09.238Z,13.6
2022-08-12T00:12:09.222Z,13.6
2022-08-12T00:15:09.236Z,13.5
2022-08-12T00:18:09.356Z,13.4
2022-08-12T00:21:09.584Z,13.4
2022-08-12T00:24:11.275Z,13.5
2022-08-12T00:27:09.231Z,13.5
2022-08-12T00:30:09.263Z,13.4
2022-08-12T00:33:15.056Z,13.3
2022-08-12T00:36:32.395Z,13.3
2022-08-12T00:39:09.200Z,13.3
2022-08-12T00:42:09.168Z,13.3
2022-08-12T00:45:09.202Z,13.3
2022-08-12T00:48:09.207Z,13.2
2022-08-12T00:51:10.914Z,13.1
2022-08-12T00:54:09.253Z,13.1
2022-08-12T00:57:09.239Z,12.9
2022-08-12T01:00:09.210Z,12.8
2022-08-12T01:03:09.164Z,12.8
2022-08-12T01:06:09.205Z,12.7
2022-08-12T01:09:09.234Z,12.6
2022-08-12T01:12:09.238Z,12.5
2022-08-12T01:15:09.228Z,12.4
2022-08-12T01:18:10.484Z,12.3
2022-08-12T01:21:09.200Z,12.2
2022-08-12T01:27:12.255Z,12.3
2022-08-12T01:30:09.369Z,12.4
2022-08-12T01:33:09.220Z,12.4
2022-08-12T01:36:17.578Z,12.4
2022-08-12T01:39:09.233Z,12.4
2022-08-12T01:42:09.181Z,12.4
2022-08-12T01:45:09.234Z,12.2
2022-08-12T01:48:12.297Z,12.1
2022-08-12T01:54:09.261Z,11.9
2022-08-12T01:57:09.249Z,11.9
2022-08-12T02:00:09.251Z,12
2022-08-12T02:03:09.164Z,11.9
2022-08-12T02:06:09.275Z,12.1
2022-08-12T02:09:10.335Z,12.1
2022-08-12T02:12:15.615Z,12.2
2022-08-12T02:15:09.176Z,12.3
2022-08-12T02:18:09.326Z,12.2
2022-08-12T02:21:09.884Z,12.1
2022-08-12T02:24:09.196Z,12
2022-08-12T02:27:09.229Z,12
2022-08-12T02:30:09.462Z,12.1
2022-08-12T02:33:09.223Z,12.1
2022-08-12T02:36:09.197Z,12
2022-08-12T02:39:09.162Z,11.9
2022-08-12T02:42:09.320Z,11.9
2022-08-12T02:45:09.205Z,11.9
2022-08-12T02:48:10.094Z,11.9
2022-08-12T02:51:09.156Z,11.9
2022-08-12T02:54:14.902Z,11.9
2022-08-12T02:57:09.186Z,11.9
2022-08-12T03:00:09.220Z,11.8
2022-08-12T03:03:09.187Z,11.6
2022-08-12T03:06:09.525Z,11.5
2022-08-12T03:09:13.566Z,11.6
2022-08-12T03:12:22.193Z,11.4
2022-08-12T03:15:09.289Z,11.3
2022-08-12T03:18:37.535Z,11.2
2022-08-12T03:21:09.259Z,11.1
2022-08-12T03:24:09.207Z,11.2
2022-08-12T03:27:09.359Z,11.2
2022-08-12T03:30:09.317Z,11.3
2022-08-12T03:33:09.221Z,11.4
2022-08-12T03:36:09.158Z,11.3
2022-08-12T03:39:09.269Z,11.3
2022-08-12T03:42:09.162Z,11.3
2022-08-12T03:45:09.189Z,11.3
2022-08-12T03:48:09.247Z,11.3
2022-08-12T03:51:09.140Z,11.3
2022-08-12T03:54:11.221Z,11.3
2022-08-12T03:57:09.235Z,11.4
2022-08-12T04:00:09.379Z,11.4
2022-08-12T04:03:15.034Z,11.4
2022-08-12T04:06:09.248Z,11.4
2022-08-12T04:09:18.898Z,11.3
2022-08-12T04:12:09.310Z,11.2
2022-08-12T04:15:09.181Z,11.1
2022-08-12T04:18:16.767Z,11
2022-08-12T04:21:09.179Z,11.1
2022-08-12T04:24:09.203Z,11.3
2022-08-12T04:27:09.243Z,11.3
2022-08-12T04:30:42.366Z,11.4
2022-08-12T04:33:09.217Z,11.4
2022-08-12T04:36:09.226Z,11.4
2022-08-12T04:39:09.262Z,11.4
2022-08-12T04:42:09.214Z,11.4
2022-08-12T04:45:09.381Z,11.5
2022-08-12T04:48:09.434Z,11.6
2022-08-12T04:51:09.210Z,11.7
2022-08-12T04:54:09.281Z,11.7
2022-08-12T04:57:14.380Z,11.8
2022-08-12T05:00:09.259Z,11.9
2022-08-12T05:03:09.655Z,12.1
2022-08-12T05:06:09.232Z,12.2
2022-08-12T05:09:19.872Z,12.4
2022-08-12T05:12:09.279Z,12.5
2022-08-12T05:15:34.407Z,12.7
2022-08-12T05:18:31.278Z,12.9
2022-08-12T05:21:09.254Z,13.1
2022-08-12T05:24:09.650Z,13.3
2022-08-12T05:27:09.223Z,13.7
2022-08-12T05:30:17.911Z,14.2
2022-08-12T05:33:09.312Z,14.8
2022-08-12T05:36:09.254Z,15.6
2022-08-12T05:39:09.315Z,16.9
2022-08-12T05:42:09.303Z,18.4
2022-08-12T05:45:09.435Z,19.6
2022-08-12T05:48:09.280Z,20.7
2022-08-12T05:51:09.272Z,21.5
2022-08-12T05:54:09.218Z,21.9
2022-08-12T05:57:09.279Z,22.4
2022-08-12T06:00:09.348Z,23.1
2022-08-12T06:03:09.943Z,23.3
2022-08-12T06:06:09.200Z,23.6
2022-08-12T06:09:09.450Z,24
2022-08-12T06:12:15.279Z,24.1
2022-08-12T06:15:09.311Z,24.4
2022-08-12T06:18:20.414Z,24.3
2022-08-12T06:21:11.149Z,24.6
2022-08-12T06:24:10.923Z,24.9
2022-08-12T06:27:09.273Z,25.3
2022-08-12T06:30:42.919Z,25.3
2022-08-12T06:36:10.961Z,25.4
2022-08-12T06:39:19.024Z,25.7
2022-08-12T06:42:51.596Z,26.2
2022-08-12T06:45:14.337Z,26.2
2022-08-12T06:48:09.245Z,26.6
2022-08-12T06:51:09.225Z,26.8
2022-08-12T06:54:09.563Z,26.9
2022-08-12T07:00:09.329Z,27.1
2022-08-12T07:03:32.259Z,27.8
2022-08-12T07:06:09.288Z,27.7
2022-08-12T07:09:12.198Z,27.9
2022-08-12T07:12:09.236Z,28.3
2022-08-12T07:15:09.279Z,28.6
2022-08-12T07:18:09.211Z,29.3
2022-08-12T07:21:09.210Z,29.8
2022-08-12T07:24:09.288Z,29.8
2022-08-12T07:27:09.245Z,30.2
2022-08-12T07:30:14.135Z,30.3
2022-08-12T07:33:10.542Z,30.6
2022-08-12T07:36:09.250Z,30.6
2022-08-12T07:39:12.955Z,30.2
2022-08-12T07:42:09.276Z,30.8
2022-08-12T07:45:09.351Z,31.5
2022-08-12T07:48:09.227Z,31.6
2022-08-12T07:51:09.206Z,31.4
2022-08-12T07:54:12.081Z,32.2
2022-08-12T07:57:09.224Z,31.7
2022-08-12T08:00:09.355Z,31.4
2022-08-12T08:03:09.279Z,31.9
2022-08-12T08:06:21.081Z,31.8
2022-08-12T08:09:09.267Z,32.6
2022-08-12T08:12:09.260Z,32.8
2022-08-12T08:15:09.286Z,32.9
2022-08-12T08:18:09.361Z,32.7
2022-08-12T08:21:10.528Z,32.2
2022-08-12T08:24:17.458Z,32.4
2022-08-12T08:27:09.233Z,31.9
2022-08-12T08:30:09.245Z,31.6
2022-08-12T08:36:25.566Z,31.4
2022-08-12T08:39:09.294Z,31.1
2022-08-12T08:42:28.999Z,31.1
2022-08-12T08:45:09.259Z,31.1
2022-08-12T08:48:09.320Z,31.1
2022-08-12T08:51:13.790Z,31.2
2022-08-12T08:54:09.398Z,31.2
2022-08-12T08:57:09.240Z,30.8
2022-08-12T09:00:09.364Z,30.8
2022-08-12T09:09:22.037Z,30.4
2022-08-12T09:12:36.145Z,31.2
2022-08-12T09:15:33.299Z,31.5
2022-08-12T09:18:14.315Z,32
2022-08-12T09:21:13.521Z,32.1
2022-08-12T09:24:27.755Z,32.4
2022-08-12T09:27:18.451Z,32
2022-08-12T09:30:46.422Z,31.9
2022-08-12T09:36:57.617Z,32.4
2022-08-12T09:48:23.859Z,32.1
2022-08-12T09:51:35.632Z,32
2022-08-12T09:55:00.040Z,31.8
2022-08-12T10:00:57.191Z,31.9
2022-08-12T10:03:35.841Z,31.8
2022-08-12T10:09:10.934Z,32.2
2022-08-12T10:12:38.611Z,31.9
2022-08-12T10:16:01.181Z,31.3
2022-08-12T10:18:17.464Z,31.3
2022-08-12T10:21:09.700Z,31.4
2022-08-12T10:24:09.933Z,31.7
2022-08-12T10:27:25.311Z,31.8
2022-08-12T10:34:06.278Z,31.2
2022-08-12T10:36:09.272Z,32
2022-08-12T10:42:09.838Z,32
2022-08-12T10:45:09.787Z,32
2022-08-12T10:48:43.253Z,32
2022-08-12T10:54:17.355Z,31.4
2022-08-12T10:57:50.278Z,31.1
2022-08-12T11:09:56.320Z,31.8
2022-08-12T11:18:24.726Z,31.5
2022-08-12T11:21:39.568Z,31.6
2022-08-12T11:24:34.496Z,31.3
2022-08-12T11:27:17.154Z,30.9
2022-08-12T11:30:40.192Z,30.8
2022-08-12T11:36:28.314Z,31.4
2022-08-12T11:42:15.056Z,31
2022-08-12T11:45:12.535Z,30.9
2022-08-12T11:48:17.287Z,31.2
2022-08-12T11:51:12.442Z,31.4
2022-08-12T11:54:16.902Z,31.5
2022-08-12T12:03:12.307Z,32
2022-08-12T12:06:11.141Z,31.7
2022-08-12T12:09:12.388Z,31.8
2022-08-12T12:12:10.794Z,31.2
2022-08-12T12:15:43.187Z,31.3
2022-08-12T12:18:09.189Z,32.1
2022-08-12T12:21:12.776Z,32.4
2022-08-12T12:24:10.248Z,31.9
2022-08-12T12:27:12.280Z,31.6
2022-08-12T12:30:39.458Z,31.5
2022-08-12T12:33:09.392Z,31.8
2022-08-12T12:36:38.548Z,31.4
2022-08-12T12:39:15.544Z,31.6
2022-08-12T12:45:35.513Z,31.5
2022-08-12T12:48:10.158Z,31.3
2022-08-12T12:51:14.256Z,31.6
2022-08-12T12:54:31.224Z,32
2022-08-12T12:57:15.196Z,31.9
2022-08-12T13:00:09.839Z,32.2
2022-08-12T13:03:24.098Z,32.3
2022-08-12T13:06:09.566Z,32.2
2022-08-12T13:09:24.362Z,32.5
2022-08-12T13:12:12.857Z,32.5
2022-08-12T13:15:09.704Z,32.2
2022-08-12T13:18:18.593Z,31.7
2022-08-12T13:21:36.595Z,31.7
2022-08-12T13:24:16.207Z,31.8
2022-08-12T13:27:10.977Z,31.9
2022-08-12T13:30:19.834Z,31.6
2022-08-12T13:33:23.070Z,31.5
2022-08-12T13:36:24.949Z,30.9
2022-08-12T13:39:11.521Z,30.6
2022-08-12T13:42:20.246Z,30.7
2022-08-12T13:45:11.888Z,30.6
2022-08-12T13:48:10.713Z,30.6
2022-08-12T13:51:13.435Z,30.6
2022-08-12T13:54:20.600Z,30.8
2022-08-12T13:57:21.457Z,30.7
2022-08-12T14:00:16.559Z,30.9
2022-08-12T14:03:14.928Z,30.6
2022-08-12T14:06:17.471Z,30.4
2022-08-12T14:09:31.692Z,30.1
2022-08-12T14:12:18.400Z,29.9
2022-08-12T14:15:09.912Z,30.1
2022-08-12T14:18:15.243Z,30
2022-08-12T14:21:24.594Z,30.4
2022-08-12T14:24:30.744Z,30.3
2022-08-12T14:30:38.347Z,29.9
2022-08-12T14:33:15.170Z,30.1
2022-08-12T14:36:10.915Z,29.9
2022-08-12T14:39:10.227Z,29.7
2022-08-12T14:42:09.262Z,29.9
2022-08-12T14:45:16.952Z,29.8
2022-08-12T14:48:11.070Z,29.8
2022-08-12T15:00:12.300Z,29.6
2022-08-12T15:03:11.327Z,29.4
2022-08-12T15:09:14.115Z,29.6
2022-08-12T15:12:32.322Z,29.6
2022-08-12T15:15:14.531Z,29.7
2022-08-12T15:18:11.502Z,29.5
2022-08-12T15:24:19.433Z,29.5
2022-08-12T15:27:15.821Z,29.5
2022-08-12T15:30:10.403Z,29.5
2022-08-12T15:33:46.809Z,29.5
2022-08-12T15:36:11.442Z,29.5
2022-08-12T15:39:20.887Z,29.4
2022-08-12T15:42:13.984Z,29.4
2022-08-12T15:45:26.086Z,29.3
2022-08-12T15:48:34.960Z,29
2022-08-12T15:51:10.943Z,29.2
2022-08-12T15:54:46.773Z,29.1
2022-08-12T15:57:19.273Z,29.1
2022-08-12T16:00:39.928Z,29
2022-08-12T16:03:19.334Z,28.9
2022-08-12T16:09:31.770Z,28.9
2022-08-12T16:12:14.751Z,29.1
2022-08-12T16:15:13.269Z,29
2022-08-12T16:18:32.706Z,28.9
2022-08-12T16:21:11.238Z,28.9
2022-08-12T16:24:12.933Z,28.9
2022-08-12T16:27:12.009Z,29.1
2022-08-12T16:30:09.737Z,29.3
2022-08-12T16:33:13.423Z,29.1
2022-08-12T16:36:20.926Z,29
2022-08-12T16:39:11.042Z,28.8
2022-08-12T16:42:10.698Z,28.6
2022-08-12T16:45:18.025Z,28.4
2022-08-12T16:48:36.328Z,28.4
2022-08-12T16:51:11.963Z,28.3
2022-08-12T16:54:18.497Z,28.3
2022-08-12T16:57:14.223Z,28.1
2022-08-12T17:00:15.343Z,28.1
2022-08-12T17:03:13.601Z,28.1
2022-08-12T17:06:22.150Z,28
2022-08-12T17:09:19.822Z,27.9
2022-08-12T17:12:10.735Z,27.9
2022-08-12T17:21:11.071Z,27.6
2022-08-12T17:24:15.179Z,27.5
2022-08-12T17:27:20.535Z,27.4
2022-08-12T17:30:21.527Z,27.3
2022-08-12T17:33:13.914Z,27.2
2022-08-12T17:36:12.775Z,27.1
2022-08-12T17:39:17.602Z,27
2022-08-12T17:42:40.550Z,26.9
2022-08-12T17:45:25.001Z,26.8
2022-08-12T17:48:21.880Z,26.6
2022-08-12T17:51:17.218Z,26.6
2022-08-12T17:54:24.875Z,26.4
2022-08-12T17:57:28.516Z,26.3
2022-08-12T18:00:13.687Z,26.2
2022-08-12T18:03:13.908Z,26.1
2022-08-12T18:06:30.030Z,25.9
2022-08-12T18:09:21.461Z,25.8
2022-08-12T18:12:34.873Z,25.7
2022-08-12T18:18:21.742Z,25.4
2022-08-12T18:21:09.946Z,25.4
2022-08-12T18:24:31.654Z,25.3
2022-08-12T18:30:20.688Z,25.1
2022-08-12T18:33:19.087Z,25
2022-08-12T18:36:24.978Z,24.9
2022-08-12T18:39:17.729Z,24.7
2022-08-12T18:42:10.624Z,24.6
2022-08-12T18:45:14.230Z,24.4
2022-08-12T18:48:09.843Z,24.4
2022-08-12T18:51:45.849Z,24.2
2022-08-12T18:54:25.373Z,23.8
2022-08-12T18:57:20.070Z,23.4
2022-08-12T19:00:16.369Z,23
2022-08-12T19:03:40.971Z,22.7
2022-08-12T19:06:19.845Z,22.3
2022-08-12T19:09:16.403Z,21.9
2022-08-12T19:12:12.164Z,21.6
2022-08-12T19:15:15.081Z,21.4
2022-08-12T19:18:12.549Z,21.2
2022-08-12T19:21:27.975Z,21.1
2022-08-12T19:24:13.632Z,20.8
2022-08-12T19:27:17.580Z,20.6
2022-08-12T19:30:24.208Z,20.3
2022-08-12T19:33:10.079Z,20.1
2022-08-12T19:36:34.797Z,20
2022-08-12T19:39:31.944Z,19.8
2022-08-12T19:42:18.996Z,19.9
2022-08-12T19:45:17.864Z,19.6
2022-08-12T19:48:20.799Z,19.5
2022-08-12T19:51:40.213Z,19.4
2022-08-12T19:54:09.310Z,19.1
2022-08-12T19:57:12.743Z,19
2022-08-12T20:00:13.747Z,18.9
2022-08-12T20:03:41.419Z,18.9
2022-08-12T20:06:36.556Z,18.8
2022-08-12T20:09:09.248Z,18.6
2022-08-12T20:15:15.972Z,18.4
2022-08-12T20:18:57.432Z,18.3
2022-08-12T20:21:42.587Z,18.3
2022-08-12T20:24:16.430Z,18.1
2022-08-12T20:30:09.490Z,17.9
2022-08-12T20:33:23.379Z,17.8
2022-08-12T20:42:11.558Z,17.3
2022-08-12T20:45:10.740Z,17.2
2022-08-12T20:48:18.137Z,17.1
2022-08-12T20:51:23.703Z,17.1
2022-08-12T20:54:13.157Z,17.1
2022-08-12T20:57:21.291Z,17.1
2022-08-12T21:00:13.833Z,17
2022-08-12T21:03:12.162Z,16.9
2022-08-12T21:06:26.434Z,16.9
2022-08-12T21:09:09.682Z,16.9
2022-08-12T21:12:39.895Z,16.8
2022-08-12T21:18:41.012Z,16.5
2022-08-12T21:21:40.278Z,16.4
2022-08-12T21:24:15.683Z,16.4
2022-08-12T21:28:00.933Z,16.4
2022-08-12T21:30:10.006Z,16.3
2022-08-12T21:33:19.225Z,16.2
2022-08-12T21:36:36.721Z,16.1
2022-08-12T21:39:38.721Z,16
2022-08-12T21:42:16.917Z,15.8
2022-08-12T21:48:09.997Z,15.3
2022-08-12T21:51:54.033Z,15.2
2022-08-12T21:54:29.460Z,15.1
2022-08-12T21:57:15.031Z,14.9
2022-08-12T22:00:23.240Z,14.7
2022-08-12T22:03:10.175Z,14.6
2022-08-12T22:06:43.021Z,14.5
2022-08-12T22:09:19.286Z,14.5
2022-08-12T22:12:11.408Z,14.4
2022-08-12T22:15:23.610Z,14.4
2022-08-12T22:18:10.873Z,14.4
2022-08-12T22:21:11.267Z,14.3
2022-08-12T22:24:32.818Z,14.2
2022-08-12T22:27:42.294Z,14.1
2022-08-12T22:30:16.295Z,14.1
2022-08-12T22:33:22.790Z,14.2
2022-08-12T22:36:09.775Z,14.3
2022-08-12T22:39:12.037Z,14.2
2022-08-12T22:42:09.685Z,14.2
2022-08-12T22:45:25.190Z,14.1
2022-08-12T22:48:09.885Z,13.9
2022-08-12T22:51:16.358Z,13.8
2022-08-12T22:54:46.219Z,13.7
2022-08-12T22:57:16.594Z,13.8
2022-08-12T23:00:30.024Z,13.8
2022-08-12T23:03:53.850Z,14
2022-08-12T23:06:21.661Z,14.1
2022-08-12T23:09:09.644Z,13.9
2022-08-12T23:12:27.420Z,13.8
2022-08-12T23:15:12.627Z,13.8
2022-08-12T23:18:12.560Z,13.7
2022-08-12T23:21:19.515Z,13.7
2022-08-12T23:24:28.143Z,13.6
2022-08-12T23:27:12.966Z,13.6
2022-08-12T23:30:44.297Z,13.6
2022-08-12T23:36:31.954Z,13.7
2022-08-12T23:42:37.206Z,13.4
2022-08-12T23:45:38.363Z,13.3
2022-08-12T23:48:09.535Z,13.2
2022-08-12T23:51:35.012Z,13
2022-08-12T23:54:17.940Z,12.9
2022-08-12T23:57:20.130Z,12.9
